Granville, TN (38564)

5:05 PM CDT on September 18, 2014 (GMT -0500)
Park West | Change Station
CLOSE
Current Station
Personal Weather Station
Location: Cookeville, TN
Elevation: 1001 ft
Nearby Weather Stations

Elev 1001 ft 36.14 °N, 85.57 °W | Updated 8 minutes ago

Partly Cloudy
Partly Cloudy
74.3 °F
Feels Like 77 °F
N
3.8
Wind Variable Wind from NE

Today
High -- | Low -- °F
--% Chance of Precip.
Yesterday
High -- | Low -- °F
Precip. -- in
6:27 AM 6:45 PM
Waning Crescent, 24% visible
Pressure 29.99 in
Visibility 10.0 miles
Clouds Clear
Heat Index 77 °F
Dew Point 59 °F
Humidity 59%
Rainfall 0.00 in
Snow Depth Not available.
UV 2 out of 12
Pollen 7.90 out of 12
Air Quality Not available.
Flu Activity Not available.
METAR KSRB 182155Z AUTO 00000KT 10SM CLR 23/16 A2999 RMK

More Conditions Fewer Conditions

Pressure 29.99 in
Visibility 10.0 miles
Clouds Clear
Heat Index 77 °F
Dew Point 59 °F
Humidity 59%
Rainfall 0.00 in
Snow Depth Not available.
UV 2 out of 12
Pollen 7.90 out of 12
Air Quality Not available.
Flu Activity Not available.
METAR KSRB 182155Z AUTO 00000KT 10SM CLR 23/16 A2999 RMK

More Conditions Fewer Conditions

10-Day Weather Forecast

Almanac

Astronomy

Sep. 18, 2014 Rise Set
Actual Time 6:27 AM CDT 6:45 PM CDT
Civil Twilight 6:02 AM CDT 7:11 PM CDT
Nautical Twilight 5:31 AM CDT 7:41 PM CDT
Astronomical Twilight 5:01 AM CDT 8:12 PM CDT
Moon 1:26 AM CDT 3:30 PM CDT
Length of Visible Light 13h 09m
Length of Day
12h 18m
Tomorrow will be 2m 17s shorter.
Waning Crescent, 24% of the Moon is Illuminated
Today
Waning Crescent
Sep 24
New
Oct 1
First Quarter
Oct 8
Full
Oct 15
Last Quarter

Today's Extremes

State Highs State Lows

Community

WunderPhotos

Upload Photos

1,754,458 photos uploaded!

WunderBlogs® & News

Nearby

Snow Depth

Station Depth Elevation
No new snow has been reported.

Earthquake Activity

City Distance Mag. Time & Date
No recent earthquake activity has been reported nearby.
Minimum magnitude displayed is 2.5.

Coastal Water Temperatures

Place Temperature
No Stations Reporting

Nearby Weather Stations